sensor_id;sensor_type;location;lat;lon;timestamp;pressure;altitude;pressure_sealevel;temperature;humidity
54389;BME280;40975;50.390;8.640;2023-02-19T00:02:10;99365.22;;;7.94;100.00
54389;BME280;40975;50.390;8.640;2023-02-19T00:04:35;99359.25;;;7.92;100.00
54389;BME280;40975;50.390;8.640;2023-02-19T00:07:00;99348.56;;;7.93;100.00
54389;BME280;40975;50.390;8.640;2023-02-19T00:09:26;99350.25;;;7.94;100.00
54389;BME280;40975;50.390;8.640;2023-02-19T00:11:51;99340.38;;;7.97;100.00
54389;BME280;40975;50.390;8.640;2023-02-19T00:14:19;99349.88;;;7.99;100.00
54389;BME280;40975;50.390;8.640;2023-02-19T00:16:44;99348.38;;;8.06;100.00
54389;BME280;40975;50.390;8.640;2023-02-19T00:19:15;99336.13;;;8.05;100.00
54389;BME280;40975;50.390;8.640;2023-02-19T00:21:41;99356.91;;;8.10;100.00
54389;BME280;40975;50.390;8.640;2023-02-19T00:24:07;99353.44;;;8.09;100.00
54389;BME280;40975;50.390;8.640;2023-02-19T00:26:34;99356.66;;;8.13;100.00
54389;BME280;40975;50.390;8.640;2023-02-19T00:29:00;99365.31;;;8.15;100.00
54389;BME280;40975;50.390;8.640;2023-02-19T00:31:28;99348.34;;;8.18;100.00
54389;BME280;40975;50.390;8.640;2023-02-19T00:33:57;99344.50;;;8.22;100.00
54389;BME280;40975;50.390;8.640;2023-02-19T00:36:24;99345.91;;;8.26;100.00
54389;BME280;40975;50.390;8.640;2023-02-19T00:38:50;99336.19;;;8.27;100.00
54389;BME280;40975;50.390;8.640;2023-02-19T00:41:17;99332.59;;;8.28;100.00
54389;BME280;40975;50.390;8.640;2023-02-19T00:46:09;99330.63;;;8.30;100.00
54389;BME280;40975;50.390;8.640;2023-02-19T00:48:35;99331.59;;;8.29;100.00
54389;BME280;40975;50.390;8.640;2023-02-19T00:51:00;99330.72;;;8.39;100.00
54389;BME280;40975;50.390;8.640;2023-02-19T00:53:25;99339.19;;;8.33;100.00
54389;BME280;40975;50.390;8.640;2023-02-19T00:55:51;99331.25;;;8.33;100.00
54389;BME280;40975;50.390;8.640;2023-02-19T00:58:16;99336.88;;;8.29;100.00
54389;BME280;40975;50.390;8.640;2023-02-19T01:00:41;99330.31;;;8.23;100.00
54389;BME280;40975;50.390;8.640;2023-02-19T01:03:07;99319.13;;;8.19;100.00
54389;BME280;40975;50.390;8.640;2023-02-19T01:05:32;99323.84;;;8.16;100.00
54389;BME280;40975;50.390;8.640;2023-02-19T01:07:57;99318.84;;;8.13;100.00
54389;BME280;40975;50.390;8.640;2023-02-19T01:10:22;99312.09;;;8.08;100.00
54389;BME280;40975;50.390;8.640;2023-02-19T01:12:48;99313.44;;;8.03;100.00
54389;BME280;40975;50.390;8.640;2023-02-19T01:15:13;99317.53;;;8.07;100.00
54389;BME280;40975;50.390;8.640;2023-02-19T01:17:39;99310.94;;;8.01;100.00
54389;BME280;40975;50.390;8.640;2023-02-19T01:20:04;99307.81;;;7.96;100.00
54389;BME280;40975;50.390;8.640;2023-02-19T01:22:29;99305.31;;;7.94;100.00
54389;BME280;40975;50.390;8.640;2023-02-19T01:24:55;99304.22;;;7.97;100.00
54389;BME280;40975;50.390;8.640;2023-02-19T01:27:20;99308.91;;;7.93;100.00
54389;BME280;40975;50.390;8.640;2023-02-19T01:29:46;99303.03;;;7.90;100.00
54389;BME280;40975;50.390;8.640;2023-02-19T01:32:11;99290.78;;;7.89;100.00
54389;BME280;40975;50.390;8.640;2023-02-19T01:34:36;99288.97;;;7.89;100.00
54389;BME280;40975;50.390;8.640;2023-02-19T01:37:02;99288.00;;;7.90;100.00
54389;BME280;40975;50.390;8.640;2023-02-19T01:39:27;99290.03;;;7.98;100.00
54389;BME280;40975;50.390;8.640;2023-02-19T01:41:52;99287.38;;;7.98;100.00
54389;BME280;40975;50.390;8.640;2023-02-19T01:46:46;99295.53;;;8.06;100.00
54389;BME280;40975;50.390;8.640;2023-02-19T01:49:29;99299.84;;;8.07;100.00
54389;BME280;40975;50.390;8.640;2023-02-19T01:52:01;99286.13;;;8.14;100.00
54389;BME280;40975;50.390;8.640;2023-02-19T01:54:31;99293.81;;;8.17;100.00
54389;BME280;40975;50.390;8.640;2023-02-19T01:56:58;99287.09;;;8.13;100.00
54389;BME280;40975;50.390;8.640;2023-02-19T01:59:25;99275.69;;;8.12;100.00
54389;BME280;40975;50.390;8.640;2023-02-19T02:01:51;99283.59;;;8.12;100.00
54389;BME280;40975;50.390;8.640;2023-02-19T02:04:17;99275.34;;;8.05;100.00
54389;BME280;40975;50.390;8.640;2023-02-19T02:06:48;99268.97;;;8.08;100.00
54389;BME280;40975;50.390;8.640;2023-02-19T02:09:15;99262.59;;;8.11;100.00
54389;BME280;40975;50.390;8.640;2023-02-19T02:12:00;99270.25;;;8.14;100.00
54389;BME280;40975;50.390;8.640;2023-02-19T02:14:28;99274.28;;;8.08;100.00
54389;BME280;40975;50.390;8.640;2023-02-19T02:20:00;99260.81;;;8.00;100.00
54389;BME280;40975;50.390;8.640;2023-02-19T02:22:42;99255.53;;;8.00;100.00
54389;BME280;40975;50.390;8.640;2023-02-19T02:28:32;99248.75;;;8.18;100.00
54389;BME280;40975;50.390;8.640;2023-02-19T02:31:06;99252.28;;;8.07;100.00
54389;BME280;40975;50.390;8.640;2023-02-19T02:33:42;99263.81;;;8.06;100.00
54389;BME280;40975;50.390;8.640;2023-02-19T02:36:16;99254.19;;;8.05;100.00
54389;BME280;40975;50.390;8.640;2023-02-19T02:38:43;99257.41;;;8.09;100.00
54389;BME280;40975;50.390;8.640;2023-02-19T02:41:12;99257.69;;;8.06;100.00
54389;BME280;40975;50.390;8.640;2023-02-19T02:43:38;99258.06;;;8.01;100.00
54389;BME280;40975;50.390;8.640;2023-02-19T02:46:04;99265.03;;;8.02;100.00
54389;BME280;40975;50.390;8.640;2023-02-19T02:48:48;99251.59;;;7.94;100.00
54389;BME280;40975;50.390;8.640;2023-02-19T02:51:28;99247.53;;;7.90;100.00
54389;BME280;40975;50.390;8.640;2023-02-19T02:54:11;99250.56;;;7.85;100.00
54389;BME280;40975;50.390;8.640;2023-02-19T02:56:59;99251.66;;;7.83;100.00
54389;BME280;40975;50.390;8.640;2023-02-19T02:59:31;99245.66;;;7.81;100.00
54389;BME280;40975;50.390;8.640;2023-02-19T03:02:07;99237.59;;;7.82;100.00
54389;BME280;40975;50.390;8.640;2023-02-19T03:07:52;99237.59;;;7.82;100.00
54389;BME280;40975;50.390;8.640;2023-02-19T03:10:26;99243.13;;;7.79;100.00
54389;BME280;40975;50.390;8.640;2023-02-19T03:12:55;99254.69;;;7.78;100.00
54389;BME280;40975;50.390;8.640;2023-02-19T03:15:44;99252.28;;;7.75;100.00
54389;BME280;40975;50.390;8.640;2023-02-19T03:18:32;99238.88;;;7.67;100.00
54389;BME280;40975;50.390;8.640;2023-02-19T03:21:19;99238.88;;;7.67;100.00
54389;BME280;40975;50.390;8.640;2023-02-19T03:23:47;99235.63;;;7.63;100.00
54389;BME280;40975;50.390;8.640;2023-02-19T03:26:32;99227.09;;;7.59;100.00
54389;BME280;40975;50.390;8.640;2023-02-19T03:28:58;99230.09;;;7.66;100.00
54389;BME280;40975;50.390;8.640;2023-02-19T03:31:45;99233.81;;;7.63;100.00
54389;BME280;40975;50.390;8.640;2023-02-19T03:34:16;99232.72;;;7.66;100.00
54389;BME280;40975;50.390;8.640;2023-02-19T03:36:47;99227.44;;;7.66;100.00
54389;BME280;40975;50.390;8.640;2023-02-19T03:39:19;99226.25;;;7.70;100.00
54389;BME280;40975;50.390;8.640;2023-02-19T03:42:01;99225.66;;;7.67;100.00
54389;BME280;40975;50.390;8.640;2023-02-19T04:06:41;99222.53;;;7.61;100.00
54389;BME280;40975;50.390;8.640;2023-02-19T04:09:10;99223.78;;;7.57;100.00
54389;BME280;40975;50.390;8.640;2023-02-19T04:11:37;99219.34;;;7.46;100.00
54389;BME280;40975;50.390;8.640;2023-02-19T04:14:18;99229.31;;;7.43;100.00
54389;BME280;40975;50.390;8.640;2023-02-19T04:16:49;99231.31;;;7.62;100.00
54389;BME280;40975;50.390;8.640;2023-02-19T04:19:18;99233.00;;;7.63;100.00
54389;BME280;40975;50.390;8.640;2023-02-19T04:21:47;99235.13;;;7.69;100.00
54389;BME280;40975;50.390;8.640;2023-02-19T04:24:18;99244.00;;;7.68;100.00
54389;BME280;40975;50.390;8.640;2023-02-19T04:26:46;99247.72;;;7.77;100.00
54389;BME280;40975;50.390;8.640;2023-02-19T04:29:12;99240.16;;;7.72;100.00
54389;BME280;40975;50.390;8.640;2023-02-19T04:31:37;99244.34;;;7.75;100.00
54389;BME280;40975;50.390;8.640;2023-02-19T04:34:02;99244.22;;;7.76;100.00
54389;BME280;40975;50.390;8.640;2023-02-19T04:36:32;99256.34;;;7.79;100.00
54389;BME280;40975;50.390;8.640;2023-02-19T04:38:57;99248.31;;;7.81;100.00
54389;BME280;40975;50.390;8.640;2023-02-19T04:41:23;99250.38;;;7.77;100.00
54389;BME280;40975;50.390;8.640;2023-02-19T04:43:48;99258.00;;;7.80;100.00
54389;BME280;40975;50.390;8.640;2023-02-19T04:46:13;99248.78;;;7.74;100.00
54389;BME280;40975;50.390;8.640;2023-02-19T04:48:39;99265.88;;;7.70;100.00
54389;BME280;40975;50.390;8.640;2023-02-19T04:51:05;99266.81;;;7.69;100.00
54389;BME280;40975;50.390;8.640;2023-02-19T04:53:31;99275.81;;;7.78;100.00
54389;BME280;40975;50.390;8.640;2023-02-19T04:56:04;99265.13;;;7.80;100.00
54389;BME280;40975;50.390;8.640;2023-02-19T04:58:30;99267.63;;;7.81;100.00
54389;BME280;40975;50.390;8.640;2023-02-19T05:00:55;99268.38;;;7.72;100.00
54389;BME280;40975;50.390;8.640;2023-02-19T05:03:20;99269.91;;;7.74;100.00
54389;BME280;40975;50.390;8.640;2023-02-19T05:05:45;99278.69;;;7.75;100.00
54389;BME280;40975;50.390;8.640;2023-02-19T05:08:11;99287.44;;;7.75;100.00
54389;BME280;40975;50.390;8.640;2023-02-19T05:10:36;99269.44;;;7.81;100.00
54389;BME280;40975;50.390;8.640;2023-02-19T05:13:01;99280.72;;;7.83;100.00
54389;BME280;40975;50.390;8.640;2023-02-19T05:15:27;99272.81;;;7.83;100.00
54389;BME280;40975;50.390;8.640;2023-02-19T05:17:52;99287.63;;;7.95;100.00
54389;BME280;40975;50.390;8.640;2023-02-19T05:20:17;99293.19;;;7.92;100.00
54389;BME280;40975;50.390;8.640;2023-02-19T05:22:43;99303.63;;;7.93;100.00
54389;BME280;40975;50.390;8.640;2023-02-19T05:25:08;99301.13;;;7.92;100.00
54389;BME280;40975;50.390;8.640;2023-02-19T05:27:34;99300.16;;;7.93;100.00
54389;BME280;40975;50.390;8.640;2023-02-19T05:29:59;99302.91;;;7.91;100.00
54389;BME280;40975;50.390;8.640;2023-02-19T05:32:25;99309.28;;;7.89;100.00
54389;BME280;40975;50.390;8.640;2023-02-19T05:34:50;99309.41;;;7.87;100.00
54389;BME280;40975;50.390;8.640;2023-02-19T05:37:15;99316.72;;;7.84;100.00
54389;BME280;40975;50.390;8.640;2023-02-19T05:39:41;99313.50;;;7.80;100.00
54389;BME280;40975;50.390;8.640;2023-02-19T05:42:06;99309.69;;;7.73;100.00
54389;BME280;40975;50.390;8.640;2023-02-19T05:44:31;99308.84;;;7.72;100.00
54389;BME280;40975;50.390;8.640;2023-02-19T05:46:57;99327.22;;;7.62;100.00
54389;BME280;40975;50.390;8.640;2023-02-19T05:49:22;99334.94;;;7.54;100.00
54389;BME280;40975;50.390;8.640;2023-02-19T05:51:51;99324.97;;;7.58;100.00
54389;BME280;40975;50.390;8.640;2023-02-19T05:54:16;99337.09;;;7.49;100.00
54389;BME280;40975;50.390;8.640;2023-02-19T05:56:42;99326.19;;;7.42;100.00
54389;BME280;40975;50.390;8.640;2023-02-19T05:59:15;99317.31;;;7.43;100.00
54389;BME280;40975;50.390;8.640;2023-02-19T06:01:40;99329.53;;;7.44;100.00
54389;BME280;40975;50.390;8.640;2023-02-19T06:04:06;99335.06;;;7.53;100.00
54389;BME280;40975;50.390;8.640;2023-02-19T06:06:31;99340.44;;;7.51;100.00
54389;BME280;40975;50.390;8.640;2023-02-19T06:08:57;99341.78;;;7.45;100.00
54389;BME280;40975;50.390;8.640;2023-02-19T06:11:23;99340.34;;;7.41;100.00
54389;BME280;40975;50.390;8.640;2023-02-19T06:13:48;99343.34;;;7.37;100.00
54389;BME280;40975;50.390;8.640;2023-02-19T06:16:14;99346.09;;;7.35;100.00
54389;BME280;40975;50.390;8.640;2023-02-19T06:18:41;99354.28;;;7.32;100.00
54389;BME280;40975;50.390;8.640;2023-02-19T06:21:08;99355.47;;;7.28;100.00
54389;BME280;40975;50.390;8.640;2023-02-19T06:23:34;99366.03;;;7.28;100.00
54389;BME280;40975;50.390;8.640;2023-02-19T06:26:10;99363.53;;;7.26;100.00
54389;BME280;40975;50.390;8.640;2023-02-19T06:28:36;99368.06;;;7.13;100.00
54389;BME280;40975;50.390;8.640;2023-02-19T06:31:02;99374.88;;;7.15;100.00
54389;BME280;40975;50.390;8.640;2023-02-19T06:33:28;99376.56;;;7.16;100.00
54389;BME280;40975;50.390;8.640;2023-02-19T06:35:56;99391.94;;;7.11;100.00
54389;BME280;40975;50.390;8.640;2023-02-19T06:38:22;99375.16;;;7.12;100.00
54389;BME280;40975;50.390;8.640;2023-02-19T06:40:47;99388.22;;;7.14;100.00
54389;BME280;40975;50.390;8.640;2023-02-19T06:43:13;99394.84;;;7.31;100.00
54389;BME280;40975;50.390;8.640;2023-02-19T06:45:38;99394.47;;;7.36;100.00
54389;BME280;40975;50.390;8.640;2023-02-19T06:48:03;99392.69;;;7.47;100.00
54389;BME280;40975;50.390;8.640;2023-02-19T06:50:29;99397.22;;;7.45;100.00
54389;BME280;40975;50.390;8.640;2023-02-19T06:52:55;99405.63;;;7.39;100.00
54389;BME280;40975;50.390;8.640;2023-02-19T06:55:20;99408.53;;;7.59;100.00
54389;BME280;40975;50.390;8.640;2023-02-19T06:57:45;99393.88;;;7.55;100.00
54389;BME280;40975;50.390;8.640;2023-02-19T07:00:11;99409.97;;;7.52;100.00
54389;BME280;40975;50.390;8.640;2023-02-19T07:02:36;99409.47;;;7.46;100.00
54389;BME280;40975;50.390;8.640;2023-02-19T07:05:01;99394.72;;;7.32;100.00
54389;BME280;40975;50.390;8.640;2023-02-19T07:07:27;99425.81;;;7.52;100.00
54389;BME280;40975;50.390;8.640;2023-02-19T07:09:52;99418.84;;;7.51;100.00
54389;BME280;40975;50.390;8.640;2023-02-19T07:12:17;99425.09;;;7.61;100.00
54389;BME280;40975;50.390;8.640;2023-02-19T07:14:43;99419.09;;;7.59;100.00
54389;BME280;40975;50.390;8.640;2023-02-19T07:17:08;99429.31;;;7.63;100.00
54389;BME280;40975;50.390;8.640;2023-02-19T07:19:33;99434.81;;;7.72;100.00
54389;BME280;40975;50.390;8.640;2023-02-19T07:21:59;99434.22;;;7.68;100.00
54389;BME280;40975;50.390;8.640;2023-02-19T07:24:24;99433.41;;;7.68;100.00
54389;BME280;40975;50.390;8.640;2023-02-19T07:26:49;99443.69;;;7.71;100.00
54389;BME280;40975;50.390;8.640;2023-02-19T07:29:14;99444.56;;;7.83;100.00
54389;BME280;40975;50.390;8.640;2023-02-19T07:31:40;99453.44;;;7.82;100.00
54389;BME280;40975;50.390;8.640;2023-02-19T07:34:06;99465.78;;;7.92;100.00
54389;BME280;40975;50.390;8.640;2023-02-19T07:36:32;99457.28;;;7.77;100.00
54389;BME280;40975;50.390;8.640;2023-02-19T07:38:58;99472.31;;;7.77;100.00
54389;BME280;40975;50.390;8.640;2023-02-19T07:41:25;99478.28;;;7.79;100.00
54389;BME280;40975;50.390;8.640;2023-02-19T07:43:53;99476.38;;;7.81;100.00
54389;BME280;40975;50.390;8.640;2023-02-19T07:46:19;99492.00;;;7.84;100.00
54389;BME280;40975;50.390;8.640;2023-02-19T07:48:45;99492.81;;;7.85;100.00
54389;BME280;40975;50.390;8.640;2023-02-19T07:51:13;99503.53;;;7.94;100.00
54389;BME280;40975;50.390;8.640;2023-02-19T07:53:40;99510.84;;;7.91;100.00
54389;BME280;40975;50.390;8.640;2023-02-19T07:56:06;99512.19;;;7.97;100.00
54389;BME280;40975;50.390;8.640;2023-02-19T07:58:33;99496.69;;;8.03;100.00
54389;BME280;40975;50.390;8.640;2023-02-19T08:01:06;99513.25;;;8.05;100.00
54389;BME280;40975;50.390;8.640;2023-02-19T08:03:32;99507.13;;;8.05;100.00
54389;BME280;40975;50.390;8.640;2023-02-19T08:05:57;99520.22;;;8.18;100.00
54389;BME280;40975;50.390;8.640;2023-02-19T08:08:22;99523.31;;;8.34;100.00
54389;BME280;40975;50.390;8.640;2023-02-19T08:10:47;99531.97;;;8.36;100.00
54389;BME280;40975;50.390;8.640;2023-02-19T08:13:31;99533.03;;;8.45;100.00
54389;BME280;40975;50.390;8.640;2023-02-19T08:18:27;99547.63;;;8.51;100.00
54389;BME280;40975;50.390;8.640;2023-02-19T08:20:54;99551.59;;;8.57;100.00
54389;BME280;40975;50.390;8.640;2023-02-19T08:23:20;99556.84;;;8.45;100.00
54389;BME280;40975;50.390;8.640;2023-02-19T08:25:46;99562.50;;;8.40;100.00
54389;BME280;40975;50.390;8.640;2023-02-19T08:28:12;99558.06;;;8.30;100.00
54389;BME280;40975;50.390;8.640;2023-02-19T08:30:39;99562.97;;;8.34;100.00
54389;BME280;40975;50.390;8.640;2023-02-19T08:33:06;99563.25;;;8.31;100.00
54389;BME280;40975;50.390;8.640;2023-02-19T08:35:33;99567.56;;;8.32;100.00
54389;BME280;40975;50.390;8.640;2023-02-19T08:38:04;99582.34;;;8.23;100.00
54389;BME280;40975;50.390;8.640;2023-02-19T08:40:30;99580.28;;;8.16;100.00
54389;BME280;40975;50.390;8.640;2023-02-19T08:43:01;99573.22;;;8.05;100.00
54389;BME280;40975;50.390;8.640;2023-02-19T08:45:26;99582.34;;;8.23;100.00
54389;BME280;40975;50.390;8.640;2023-02-19T08:47:51;99587.03;;;8.31;100.00
54389;BME280;40975;50.390;8.640;2023-02-19T08:50:17;99583.31;;;8.22;100.00
54389;BME280;40975;50.390;8.640;2023-02-19T08:52:42;99594.25;;;8.40;100.00
54389;BME280;40975;50.390;8.640;2023-02-19T08:55:08;99599.78;;;8.37;100.00
54389;BME280;40975;50.390;8.640;2023-02-19T08:57:36;99596.03;;;8.40;100.00
54389;BME280;40975;50.390;8.640;2023-02-19T09:00:05;99600.75;;;8.48;100.00
54389;BME280;40975;50.390;8.640;2023-02-19T09:02:31;99603.53;;;8.58;100.00
54389;BME280;40975;50.390;8.640;2023-02-19T09:04:57;99596.50;;;8.79;100.00
54389;BME280;40975;50.390;8.640;2023-02-19T09:07:22;99599.03;;;8.81;100.00
54389;BME280;40975;50.390;8.640;2023-02-19T09:09:47;99613.19;;;9.02;100.00
54389;BME280;40975;50.390;8.640;2023-02-19T09:12:13;99621.84;;;9.05;100.00
54389;BME280;40975;50.390;8.640;2023-02-19T09:14:39;99636.16;;;9.13;100.00
54389;BME280;40975;50.390;8.640;2023-02-19T09:17:06;99636.66;;;9.07;100.00
54389;BME280;40975;50.390;8.640;2023-02-19T09:19:32;99633.91;;;8.97;100.00
54389;BME280;40975;50.390;8.640;2023-02-19T09:21:57;99622.34;;;8.87;100.00
54389;BME280;40975;50.390;8.640;2023-02-19T09:24:23;99624.19;;;8.75;100.00
54389;BME280;40975;50.390;8.640;2023-02-19T09:26:49;99624.56;;;8.70;100.00
54389;BME280;40975;50.390;8.640;2023-02-19T09:29:15;99621.94;;;8.59;100.00
54389;BME280;40975;50.390;8.640;2023-02-19T09:31:40;99617.44;;;8.71;100.00
54389;BME280;40975;50.390;8.640;2023-02-19T09:34:06;99621.03;;;8.81;100.00
54389;BME280;40975;50.390;8.640;2023-02-19T09:36:32;99615.75;;;8.81;100.00
54389;BME280;40975;50.390;8.640;2023-02-19T09:38:58;99620.13;;;9.15;100.00
54389;BME280;40975;50.390;8.640;2023-02-19T09:41:31;99623.69;;;9.25;100.00
54389;BME280;40975;50.390;8.640;2023-02-19T09:43:57;99630.03;;;9.13;100.00
54389;BME280;40975;50.390;8.640;2023-02-19T09:46:37;99630.53;;;8.95;100.00
54389;BME280;40975;50.390;8.640;2023-02-19T09:49:06;99632.22;;;8.85;100.00
54389;BME280;40975;50.390;8.640;2023-02-19T09:51:36;99635.16;;;8.70;100.00
54389;BME280;40975;50.390;8.640;2023-02-19T09:54:05;99640.53;;;8.69;100.00
54389;BME280;40975;50.390;8.640;2023-02-19T09:56:32;99649.09;;;8.73;100.00
54389;BME280;40975;50.390;8.640;2023-02-19T09:58:58;99645.13;;;8.67;100.00
54389;BME280;40975;50.390;8.640;2023-02-19T10:01:27;99654.63;;;8.69;100.00
54389;BME280;40975;50.390;8.640;2023-02-19T10:03:54;99666.91;;;8.59;100.00
54389;BME280;40975;50.390;8.640;2023-02-19T10:06:22;99674.13;;;8.68;100.00
54389;BME280;40975;50.390;8.640;2023-02-19T10:08:54;99675.06;;;8.79;100.00
54389;BME280;40975;50.390;8.640;2023-02-19T10:11:21;99679.63;;;8.88;100.00
54389;BME280;40975;50.390;8.640;2023-02-19T10:14:20;99682.63;;;8.95;100.00
54389;BME280;40975;50.390;8.640;2023-02-19T10:16:47;99676.50;;;8.94;100.00
54389;BME280;40975;50.390;8.640;2023-02-19T10:19:14;99674.31;;;9.11;100.00
54389;BME280;40975;50.390;8.640;2023-02-19T10:21:40;99681.38;;;9.22;100.00
54389;BME280;40975;50.390;8.640;2023-02-19T10:24:06;99688.19;;;9.36;100.00
54389;BME280;40975;50.390;8.640;2023-02-19T10:26:32;99691.50;;;9.28;100.00
54389;BME280;40975;50.390;8.640;2023-02-19T10:29:02;99691.88;;;9.23;100.00
54389;BME280;40975;50.390;8.640;2023-02-19T10:31:30;99694.94;;;9.40;100.00
54389;BME280;40975;50.390;8.640;2023-02-19T10:33:58;99698.94;;;9.34;100.00
54389;BME280;40975;50.390;8.640;2023-02-19T10:36:39;99703.63;;;9.42;100.00
54389;BME280;40975;50.390;8.640;2023-02-19T10:41:47;99724.47;;;9.24;100.00
54389;BME280;40975;50.390;8.640;2023-02-19T10:44:16;99731.88;;;9.53;100.00
54389;BME280;40975;50.390;8.640;2023-02-19T10:46:44;99737.06;;;9.87;100.00
54389;BME280;40975;50.390;8.640;2023-02-19T10:49:33;99738.94;;;9.63;100.00
54389;BME280;40975;50.390;8.640;2023-02-19T10:52:08;99733.44;;;9.44;100.00
54389;BME280;40975;50.390;8.640;2023-02-19T10:54:41;99737.22;;;9.30;100.00
54389;BME280;40975;50.390;8.640;2023-02-19T11:02:17;99741.91;;;9.38;100.00
54389;BME280;40975;50.390;8.640;2023-02-19T11:05:02;99739.41;;;9.25;100.00
54389;BME280;40975;50.390;8.640;2023-02-19T11:07:28;99741.91;;;9.38;100.00
54389;BME280;40975;50.390;8.640;2023-02-19T11:09:54;99741.34;;;9.23;100.00
54389;BME280;40975;50.390;8.640;2023-02-19T11:12:38;99747.06;;;9.39;100.00
54389;BME280;40975;50.390;8.640;2023-02-19T11:15:21;99752.91;;;10.52;100.00
54389;BME280;40975;50.390;8.640;2023-02-19T11:17:56;99750.31;;;11.33;100.00
54389;BME280;40975;50.390;8.640;2023-02-19T11:20:23;99767.66;;;10.97;100.00
54389;BME280;40975;50.390;8.640;2023-02-19T11:22:48;99761.03;;;11.22;100.00
54389;BME280;40975;50.390;8.640;2023-02-19T11:28:00;99756.69;;;11.21;100.00
54389;BME280;40975;50.390;8.640;2023-02-19T11:30:35;99764.88;;;10.67;100.00
54389;BME280;40975;50.390;8.640;2023-02-19T11:33:20;99754.81;;;10.29;100.00
54389;BME280;40975;50.390;8.640;2023-02-19T11:35:50;99772.41;;;10.41;100.00
54389;BME280;40975;50.390;8.640;2023-02-19T11:38:17;99750.59;;;10.99;100.00
54389;BME280;40975;50.390;8.640;2023-02-19T11:52:09;99743.19;;;11.44;100.00
54389;BME280;40975;50.390;8.640;2023-02-19T11:57:19;99747.69;;;10.71;100.00
54389;BME280;40975;50.390;8.640;2023-02-19T12:00:35;99757.38;;;10.51;100.00
54389;BME280;40975;50.390;8.640;2023-02-19T12:02:57;99761.72;;;10.52;100.00
54389;BME280;40975;50.390;8.640;2023-02-19T12:17:04;99751.03;;;11.45;100.00
54389;BME280;40975;50.390;8.640;2023-02-19T12:22:28;99781.63;;;10.68;100.00
54389;BME280;40975;50.390;8.640;2023-02-19T12:30:27;99763.38;;;10.75;100.00
54389;BME280;40975;50.390;8.640;2023-02-19T12:38:15;99769.78;;;11.03;100.00
54389;BME280;40975;50.390;8.640;2023-02-19T12:41:17;99758.63;;;11.79;100.00
54389;BME280;40975;50.390;8.640;2023-02-19T12:44:00;99750.81;;;12.27;100.00
54389;BME280;40975;50.390;8.640;2023-02-19T12:46:33;99755.56;;;11.84;100.00
54389;BME280;40975;50.390;8.640;2023-02-19T12:49:06;99745.97;;;11.32;100.00
54389;BME280;40975;50.390;8.640;2023-02-19T12:51:46;99755.25;;;10.97;100.00
54389;BME280;40975;50.390;8.640;2023-02-19T12:54:23;99750.03;;;10.96;100.00
54389;BME280;40975;50.390;8.640;2023-02-19T12:57:00;99748.25;;;10.65;100.00
54389;BME280;40975;50.390;8.640;2023-02-19T12:59:37;99761.06;;;10.39;100.00
54389;BME280;40975;50.390;8.640;2023-02-19T13:02:15;99751.03;;;10.42;100.00
54389;BME280;40975;50.390;8.640;2023-02-19T13:04:55;99756.47;;;10.41;100.00
54389;BME280;40975;50.390;8.640;2023-02-19T13:07:27;99755.59;;;10.19;100.00
54389;BME280;40975;50.390;8.640;2023-02-19T13:09:59;99762.16;;;10.04;100.00
54389;BME280;40975;50.390;8.640;2023-02-19T13:12:30;99770.84;;;10.06;100.00
54389;BME280;40975;50.390;8.640;2023-02-19T13:15:01;99767.78;;;9.89;100.00
54389;BME280;40975;50.390;8.640;2023-02-19T13:17:46;99765.03;;;10.12;100.00
54389;BME280;40975;50.390;8.640;2023-02-19T13:20:33;99765.34;;;10.51;100.00
54389;BME280;40975;50.390;8.640;2023-02-19T13:23:22;99774.31;;;10.60;100.00
54389;BME280;40975;50.390;8.640;2023-02-19T13:29:17;99769.56;;;10.85;100.00
54389;BME280;40975;50.390;8.640;2023-02-19T13:37:25;99799.16;;;10.17;100.00
54389;BME280;40975;50.390;8.640;2023-02-19T13:39:53;99794.53;;;9.86;100.00
54389;BME280;40975;50.390;8.640;2023-02-19T13:42:31;99798.81;;;9.77;100.00
54389;BME280;40975;50.390;8.640;2023-02-19T13:44:58;99794.28;;;9.45;100.00
54389;BME280;40975;50.390;8.640;2023-02-19T13:47:46;99804.97;;;9.55;100.00
54389;BME280;40975;50.390;8.640;2023-02-19T13:50:23;99799.09;;;9.52;100.00
54389;BME280;40975;50.390;8.640;2023-02-19T13:52:50;99801.50;;;9.55;100.00
54389;BME280;40975;50.390;8.640;2023-02-19T13:58:56;99804.16;;;9.55;100.00
54389;BME280;40975;50.390;8.640;2023-02-19T14:04:41;99813.75;;;9.67;100.00
54389;BME280;40975;50.390;8.640;2023-02-19T14:14:47;99803.06;;;9.57;100.00
54389;BME280;40975;50.390;8.640;2023-02-19T14:30:58;99815.50;;;9.23;100.00
54389;BME280;40975;50.390;8.640;2023-02-19T14:33:39;99816.69;;;9.30;100.00
54389;BME280;40975;50.390;8.640;2023-02-19T14:38:53;99812.34;;;9.40;100.00
54389;BME280;40975;50.390;8.640;2023-02-19T14:41:19;99814.38;;;9.48;100.00
54389;BME280;40975;50.390;8.640;2023-02-19T14:43:48;99811.75;;;9.48;100.00
54389;BME280;40975;50.390;8.640;2023-02-19T14:48:45;99822.34;;;9.48;100.00
54389;BME280;40975;50.390;8.640;2023-02-19T14:51:26;99819.53;;;9.61;100.00
54389;BME280;40975;50.390;8.640;2023-02-19T14:53:55;99811.00;;;9.57;100.00
54389;BME280;40975;50.390;8.640;2023-02-19T14:56:27;99811.00;;;9.57;100.00
54389;BME280;40975;50.390;8.640;2023-02-19T15:01:37;99824.84;;;9.49;100.00
54389;BME280;40975;50.390;8.640;2023-02-19T15:04:03;99833.06;;;9.46;100.00
54389;BME280;40975;50.390;8.640;2023-02-19T15:06:30;99840.53;;;9.41;100.00
54389;BME280;40975;50.390;8.640;2023-02-19T15:08:58;99841.38;;;9.42;100.00
54389;BME280;40975;50.390;8.640;2023-02-19T15:11:27;99845.81;;;9.30;100.00
54389;BME280;40975;50.390;8.640;2023-02-19T15:13:59;99854.25;;;9.24;100.00
54389;BME280;40975;50.390;8.640;2023-02-19T15:16:25;99850.06;;;9.21;100.00
54389;BME280;40975;50.390;8.640;2023-02-19T15:18:53;99858.34;;;9.16;100.00
54389;BME280;40975;50.390;8.640;2023-02-19T15:21:24;99864.47;;;9.17;100.00
54389;BME280;40975;50.390;8.640;2023-02-19T15:23:56;99859.53;;;9.01;100.00
54389;BME280;40975;50.390;8.640;2023-02-19T15:26:36;99863.28;;;9.10;100.00